Time;durP1;ratioP1;P1;durP2;ratioP2;P2;SDS_P1;SDS_P2;PMS_P1;PMS_P2;Temp;Humidity;BMP_temperature;BMP_pressure;BME280_temperature;BME280_humidity;BME280_pressure;Samples;Min_cycle;Max_cycle;Signal;HPM_P1;HPM_P2
2023/01/29 00:01:11;;;;;;;0.20;0.20;;;3.40;99.90;;;;;;5030978;28;20199;-81
2023/01/29 00:03:36;;;;;;;0.30;0.30;;;3.40;99.90;;;;;;5030144;28;20230;-81
2023/01/29 00:06:07;;;;;;;0.30;0.30;;;3.40;99.90;;;;;;5030113;28;20184;-81
2023/01/29 00:08:34;;;;;;;0.30;0.30;;;3.40;99.90;;;;;;5026274;28;20719;-81
2023/01/29 00:11:01;;;;;;;0.20;0.20;;;3.40;99.90;;;;;;5030773;28;20535;-81
2023/01/29 00:13:27;;;;;;;0.30;0.30;;;3.40;99.90;;;;;;5021831;28;20977;-81
2023/01/29 00:15:54;;;;;;;0.30;0.30;;;3.40;99.90;;;;;;5024412;28;20537;-81
2023/01/29 00:18:20;;;;;;;0.20;0.20;;;3.40;99.90;;;;;;5030626;28;20666;-81
2023/01/29 00:20:45;;;;;;;0.20;0.20;;;3.40;99.90;;;;;;5021084;28;20452;-81
2023/01/29 00:23:11;;;;;;;0.30;0.30;;;3.50;99.90;;;;;;5025631;28;20223;-81
2023/01/29 00:25:36;;;;;;;0.20;0.20;;;3.40;99.90;;;;;;5030183;28;20183;-81
2023/01/29 00:28:02;;;;;;;0.20;0.20;;;3.40;99.90;;;;;;5028166;28;20184;-82
2023/01/29 00:30:28;;;;;;;0.30;0.30;;;3.50;99.90;;;;;;5021667;28;20678;-81
2023/01/29 00:32:53;;;;;;;0.20;0.20;;;3.50;99.90;;;;;;5025960;28;20198;-81
2023/01/29 00:35:19;;;;;;;0.20;0.20;;;3.50;99.90;;;;;;5029949;28;20184;-81
2023/01/29 00:37:44;;;;;;;0.30;0.30;;;3.60;99.90;;;;;;5027899;28;20237;-81
2023/01/29 00:40:10;;;;;;;0.20;0.20;;;3.60;99.90;;;;;;5024633;28;20202;-81
2023/01/29 00:45:20;;;;;;;0.30;0.30;;;3.60;99.90;;;;;;5028614;28;20843;-81
2023/01/29 00:47:46;;;;;;;0.30;0.30;;;3.60;99.90;;;;;;5031063;28;20445;-81
2023/01/29 00:50:11;;;;;;;0.30;0.30;;;3.60;99.90;;;;;;5028075;28;20250;-81
2023/01/29 00:52:39;;;;;;;0.30;0.30;;;3.50;99.90;;;;;;5017531;28;20192;-81
2023/01/29 00:55:06;;;;;;;0.20;0.20;;;3.60;99.90;;;;;;5030888;28;20568;-81
2023/01/29 00:57:34;;;;;;;0.23;0.23;;;3.50;99.90;;;;;;5029862;28;20456;-81
2023/01/29 01:00:00;;;;;;;0.30;0.30;;;3.50;99.90;;;;;;5016654;28;20968;-81
2023/01/29 01:05:18;;;;;;;0.20;0.20;;;3.50;99.90;;;;;;5029873;28;20992;-81
2023/01/29 01:07:51;;;;;;;0.20;0.20;;;3.50;99.90;;;;;;5028574;28;20890;-81
2023/01/29 01:10:20;;;;;;;0.30;0.30;;;3.60;99.90;;;;;;5026945;28;20457;-81
2023/01/29 01:12:49;;;;;;;0.30;0.30;;;3.60;99.90;;;;;;5029510;28;20472;-81
2023/01/29 01:15:15;;;;;;;0.27;0.27;;;3.50;99.90;;;;;;5028894;28;20477;-81
2023/01/29 01:17:40;;;;;;;0.30;0.30;;;3.60;99.90;;;;;;5030086;28;20421;-81
2023/01/29 01:20:06;;;;;;;0.30;0.30;;;3.60;99.90;;;;;;5027359;28;20302;-81
2023/01/29 01:22:32;;;;;;;0.30;0.30;;;3.60;99.90;;;;;;5022370;28;20675;-81
2023/01/29 01:24:57;;;;;;;0.20;0.20;;;3.60;99.90;;;;;;5024736;28;20485;-81
2023/01/29 01:27:24;;;;;;;0.30;0.30;;;3.60;99.90;;;;;;5029219;28;20275;-81
2023/01/29 01:29:50;;;;;;;0.20;0.20;;;3.60;99.90;;;;;;5028335;28;20187;-81
2023/01/29 01:32:15;;;;;;;0.30;0.30;;;3.60;99.90;;;;;;5028731;28;20895;-81
2023/01/29 01:34:41;;;;;;;0.20;0.20;;;3.60;99.90;;;;;;5028299;28;20526;-81
2023/01/29 01:37:06;;;;;;;0.20;0.20;;;3.70;99.90;;;;;;5027359;28;20667;-81
2023/01/29 01:39:32;;;;;;;0.20;0.20;;;3.60;99.90;;;;;;5026189;28;20194;-81
2023/01/29 01:41:57;;;;;;;0.30;0.30;;;3.60;99.90;;;;;;5029676;28;20196;-81
2023/01/29 01:45:03;;;;;;;0.30;0.30;;;3.60;99.90;;;;;;5028045;28;20234;-81
2023/01/29 01:47:31;;;;;;;0.20;0.20;;;3.60;99.90;;;;;;5028879;28;20679;-81
2023/01/29 01:50:08;;;;;;;0.30;0.30;;;3.60;99.90;;;;;;5024071;28;20955;-81
2023/01/29 01:52:38;;;;;;;0.30;0.30;;;3.60;99.90;;;;;;5020297;28;20462;-81
2023/01/29 01:55:04;;;;;;;0.30;0.30;;;3.60;99.90;;;;;;5017215;28;20941;-81
2023/01/29 01:57:30;;;;;;;0.30;0.30;;;3.60;99.90;;;;;;5030055;28;20422;-81
2023/01/29 02:00:11;;;;;;;0.20;0.20;;;3.60;99.90;;;;;;5029395;28;20500;-79
2023/01/29 02:10:54;;;;;;;0.27;0.27;;;3.70;99.90;;;;;;5019455;28;20468;-81
2023/01/29 02:13:20;;;;;;;0.20;0.20;;;3.70;99.90;;;;;;5027640;28;20469;-81
2023/01/29 02:15:47;;;;;;;0.20;0.20;;;3.70;99.90;;;;;;5027603;28;20449;-80
2023/01/29 02:18:15;;;;;;;0.20;0.20;;;3.70;99.90;;;;;;5024388;28;20816;-81
2023/01/29 02:20:47;;;;;;;0.30;0.30;;;3.70;99.90;;;;;;5024967;28;20861;-81
2023/01/29 02:23:31;;;;;;;0.20;0.20;;;3.70;99.90;;;;;;5022738;28;20978;-81
2023/01/29 02:26:21;;;;;;;0.30;0.30;;;3.70;99.90;;;;;;5028477;28;20450;-80
2023/01/29 02:28:57;;;;;;;0.20;0.20;;;3.80;99.90;;;;;;5025664;28;20450;-80
2023/01/29 02:31:39;;;;;;;0.30;0.30;;;3.80;99.90;;;;;;5025813;28;20450;-81
2023/01/29 02:34:11;;;;;;;0.30;0.30;;;3.80;99.90;;;;;;5029175;28;20434;-81
2023/01/29 02:36:46;;;;;;;0.30;0.30;;;3.80;99.90;;;;;;5028211;28;20446;-81
2023/01/29 02:39:20;;;;;;;0.27;0.27;;;3.80;99.90;;;;;;5027802;28;20507;-81
2023/01/29 02:42:11;;;;;;;0.20;0.20;;;3.80;99.90;;;;;;5025303;28;20445;-81
2023/01/29 02:44:42;;;;;;;0.30;0.30;;;3.80;99.90;;;;;;5037965;28;20493;-81
2023/01/29 02:47:32;;;;;;;0.30;0.30;;;3.80;99.90;;;;;;5018744;28;21051;-80
2023/01/29 02:50:15;;;;;;;0.20;0.20;;;3.80;99.90;;;;;;5028357;28;20466;-81
2023/01/29 02:52:53;;;;;;;0.20;0.20;;;3.80;99.90;;;;;;5027202;28;20446;-81
2023/01/29 02:55:24;;;;;;;0.20;0.20;;;3.80;99.90;;;;;;5029296;28;20841;-81
2023/01/29 02:57:55;;;;;;;0.20;0.20;;;3.70;99.90;;;;;;5028242;28;20462;-81
2023/01/29 03:00:25;;;;;;;0.30;0.30;;;3.70;99.90;;;;;;5022585;28;20462;-80
2023/01/29 03:03:09;;;;;;;0.20;0.20;;;3.70;99.90;;;;;;5014395;28;20461;-81
2023/01/29 03:05:55;;;;;;;0.30;0.30;;;3.70;99.90;;;;;;5022869;28;20450;-83
2023/01/29 03:08:35;;;;;;;0.30;0.30;;;3.70;99.90;;;;;;5027266;28;20692;-83
2023/01/29 03:11:04;;;;;;;0.30;0.30;;;3.70;99.90;;;;;;5028878;28;20453;-84
2023/01/29 03:13:39;;;;;;;0.30;0.30;;;3.70;99.90;;;;;;5025898;28;20469;-84
2023/01/29 03:16:29;;;;;;;0.23;0.23;;;3.70;99.90;;;;;;5025387;28;20446;-83
2023/01/29 03:19:04;;;;;;;0.30;0.30;;;3.70;99.90;;;;;;5025837;28;20443;-83
2023/01/29 03:32:52;;;;;;;0.23;0.23;;;3.60;99.90;;;;;;5028572;28;20521;-81
2023/01/29 03:35:32;;;;;;;;;;;3.60;99.90;;;;;;5028208;28;20485;-81
2023/01/29 03:37:58;;;;;;;0.30;0.30;;;3.60;99.90;;;;;;5027343;28;20220;-81
2023/01/29 03:40:25;;;;;;;0.30;0.30;;;3.60;99.90;;;;;;5024261;28;20442;-81
2023/01/29 03:43:15;;;;;;;0.30;0.30;;;3.60;99.90;;;;;;5026591;28;20442;-81
2023/01/29 03:45:57;;;;;;;0.30;0.30;;;3.60;99.90;;;;;;5028345;28;20789;-81
2023/01/29 03:49:01;;;;;;;0.40;0.40;;;3.60;99.90;;;;;;5025963;28;20461;-81
2023/01/29 03:51:30;;;;;;;0.30;0.30;;;3.60;99.90;;;;;;5023502;28;20511;-81
2023/01/29 03:54:18;;;;;;;0.30;0.30;;;3.60;99.90;;;;;;5028816;28;21098;-81
2023/01/29 03:57:14;;;;;;;0.30;0.30;;;3.60;99.90;;;;;;5031170;28;20495;-81
2023/01/29 04:00:00;;;;;;;0.30;0.30;;;3.60;99.90;;;;;;5024890;28;20444;-81
2023/01/29 04:02:33;;;;;;;0.30;0.30;;;3.60;99.90;;;;;;5025852;28;20488;-80
2023/01/29 04:05:04;;;;;;;0.27;0.27;;;3.60;99.90;;;;;;5029628;28;20517;-80
2023/01/29 04:07:32;;;;;;;0.30;0.30;;;3.70;99.90;;;;;;5026272;28;20815;-81
2023/01/29 04:10:07;;;;;;;0.30;0.30;;;3.70;99.90;;;;;;5033497;28;20488;-81
2023/01/29 04:12:40;;;;;;;0.40;0.40;;;3.70;99.90;;;;;;5035816;28;20474;-81
2023/01/29 04:15:14;;;;;;;0.20;0.20;;;3.70;99.90;;;;;;5028003;28;20516;-81
2023/01/29 04:17:43;;;;;;;0.23;0.23;;;3.60;99.90;;;;;;5028245;28;20450;-81
2023/01/29 04:20:09;;;;;;;0.30;0.30;;;3.70;99.90;;;;;;5031266;28;20454;-81
2023/01/29 04:22:37;;;;;;;0.30;0.30;;;3.70;99.90;;;;;;5021804;28;20455;-81
2023/01/29 04:25:08;;;;;;;0.30;0.30;;;3.70;99.90;;;;;;5038711;28;20486;-80
2023/01/29 04:27:45;;;;;;;0.27;0.27;;;3.70;99.90;;;;;;5047309;28;20433;-81
2023/01/29 04:30:25;;;;;;;0.30;0.30;;;3.70;99.90;;;;;;5043422;28;20447;-81
2023/01/29 04:33:09;;;;;;;0.30;0.30;;;3.70;99.90;;;;;;5043456;28;20496;-81
2023/01/29 04:36:16;;;;;;;0.20;0.20;;;3.70;99.90;;;;;;5035775;28;20525;-81
2023/01/29 04:39:12;;;;;;;0.30;0.30;;;3.70;99.90;;;;;;5032888;28;20858;-82
2023/01/29 04:41:56;;;;;;;0.30;0.30;;;3.70;99.90;;;;;;5033442;28;20468;-81
2023/01/29 04:44:36;;;;;;;0.20;0.20;;;3.70;99.90;;;;;;5027705;28;21006;-81
2023/01/29 04:47:10;;;;;;;0.20;0.20;;;3.60;99.90;;;;;;5026161;28;21167;-81
2023/01/29 04:49:48;;;;;;;;;;;3.70;99.90;;;;;;5032823;28;21273;-81
2023/01/29 04:52:14;;;;;;;;;;;3.70;99.90;;;;;;5031259;28;19917;-82
2023/01/29 04:55:12;;;;;;;;;;;3.70;99.90;;;;;;5029890;28;19952;-81
2023/01/29 04:58:03;;;;;;;;;;;3.70;99.90;;;;;;5007185;28;19943;-81
2023/01/29 05:00:31;;;;;;;;;;;3.70;99.90;;;;;;5020593;28;19954;-81
2023/01/29 05:02:59;;;;;;;0.30;0.30;;;3.70;99.90;;;;;;5028912;28;20350;-80
2023/01/29 05:05:25;;;;;;;0.30;0.30;;;3.80;99.90;;;;;;5031375;28;20832;-81
2023/01/29 05:07:51;;;;;;;0.20;0.20;;;3.80;99.90;;;;;;5030225;28;20441;-81
2023/01/29 05:10:19;;;;;;;0.30;0.30;;;3.80;99.90;;;;;;5028190;28;20449;-81
2023/01/29 05:12:50;;;;;;;0.30;0.30;;;3.80;99.90;;;;;;5030226;28;20807;-81
2023/01/29 05:15:22;;;;;;;0.30;0.30;;;3.80;99.90;;;;;;5022072;28;20480;-81
2023/01/29 05:17:47;;;;;;;0.30;0.30;;;3.90;99.90;;;;;;5029514;28;20529;-81
2023/01/29 05:20:13;;;;;;;0.30;0.30;;;3.90;99.90;;;;;;5030004;28;20989;-81
2023/01/29 05:22:40;;;;;;;0.20;0.20;;;3.90;99.90;;;;;;5027051;28;20183;-81
2023/01/29 05:25:24;;;;;;;0.30;0.30;;;3.90;99.90;;;;;;5027027;28;20231;-81
2023/01/29 05:28:10;;;;;;;0.30;0.30;;;3.90;99.90;;;;;;5027902;28;21000;-80
2023/01/29 05:30:37;;;;;;;0.30;0.30;;;3.90;99.90;;;;;;5027349;28;21374;-81
2023/01/29 05:33:10;;;;;;;0.30;0.30;;;3.90;99.90;;;;;;5021041;28;20817;-80
2023/01/29 05:35:35;;;;;;;0.20;0.20;;;3.90;99.90;;;;;;5023992;28;20449;-81
2023/01/29 05:38:02;;;;;;;0.30;0.30;;;3.90;99.90;;;;;;5018607;28;20822;-81
2023/01/29 05:40:27;;;;;;;0.20;0.20;;;3.90;99.90;;;;;;5021104;28;20237;-80
2023/01/29 05:42:53;;;;;;;0.23;0.23;;;3.90;99.90;;;;;;5023536;28;20449;-81
2023/01/29 05:45:19;;;;;;;0.20;0.20;;;4.00;99.90;;;;;;5023574;28;20219;-80
2023/01/29 05:47:46;;;;;;;0.30;0.30;;;3.90;99.90;;;;;;5019891;28;20184;-81
2023/01/29 05:50:12;;;;;;;0.30;0.30;;;3.90;99.90;;;;;;5023182;28;20551;-81
2023/01/29 05:52:39;;;;;;;0.20;0.20;;;3.90;99.90;;;;;;5029943;28;20459;-81
2023/01/29 05:55:07;;;;;;;0.30;0.30;;;4.00;99.90;;;;;;5018180;28;20438;-81
2023/01/29 05:57:32;;;;;;;0.30;0.30;;;4.00;99.90;;;;;;5021739;28;20539;-81
2023/01/29 05:59:58;;;;;;;0.23;0.23;;;4.00;99.90;;;;;;5017507;28;20489;-81
2023/01/29 06:02:23;;;;;;;0.30;0.30;;;3.90;99.90;;;;;;5022269;28;20195;-81
2023/01/29 06:04:51;;;;;;;0.27;0.27;;;4.00;99.90;;;;;;5026447;28;20215;-82
2023/01/29 06:07:17;;;;;;;0.27;0.27;;;4.00;99.90;;;;;;5029765;28;20241;-82
2023/01/29 06:09:43;;;;;;;0.20;0.20;;;4.00;99.90;;;;;;5022440;28;20456;-81
2023/01/29 06:12:09;;;;;;;0.20;0.20;;;3.90;99.90;;;;;;5027325;28;20446;-81
2023/01/29 06:14:34;;;;;;;0.30;0.30;;;3.90;99.90;;;;;;5021700;28;20247;-81
2023/01/29 06:17:00;;;;;;;0.30;0.30;;;3.90;99.90;;;;;;5038638;28;20179;-81
2023/01/29 06:19:25;;;;;;;0.30;0.30;;;3.90;99.90;;;;;;5026792;28;20321;-81
2023/01/29 06:21:50;;;;;;;0.30;0.30;;;3.90;99.90;;;;;;5027408;28;20986;-81
2023/01/29 06:24:16;;;;;;;0.30;0.30;;;3.90;99.90;;;;;;5027011;28;20211;-81
2023/01/29 06:26:41;;;;;;;0.30;0.30;;;3.90;99.90;;;;;;5020075;28;20202;-81
2023/01/29 06:29:07;;;;;;;0.30;0.30;;;4.00;99.90;;;;;;5021819;28;20190;-82
2023/01/29 06:31:32;;;;;;;0.30;0.30;;;4.00;99.90;;;;;;5018511;28;20190;-82
2023/01/29 06:33:58;;;;;;;0.30;0.30;;;4.00;99.90;;;;;;5025909;28;20199;-82
2023/01/29 06:36:23;;;;;;;0.30;0.30;;;4.00;99.90;;;;;;5023529;28;20187;-82
2023/01/29 06:38:49;;;;;;;0.30;0.30;;;4.00;99.90;;;;;;5024205;28;20663;-82
2023/01/29 06:41:17;;;;;;;0.30;0.30;;;4.00;99.90;;;;;;5021883;28;20719;-82
2023/01/29 06:43:46;;;;;;;0.30;0.30;;;4.10;99.90;;;;;;5038489;28;20215;-81
2023/01/29 06:46:12;;;;;;;0.30;0.30;;;4.10;99.90;;;;;;5019583;28;20977;-82
2023/01/29 06:48:38;;;;;;;0.30;0.30;;;4.10;99.90;;;;;;5022912;28;20565;-81
2023/01/29 06:51:05;;;;;;;0.20;0.20;;;4.10;99.90;;;;;;5022831;28;20484;-81
2023/01/29 06:53:32;;;;;;;0.30;0.30;;;4.10;99.90;;;;;;5014931;28;20260;-81
2023/01/29 06:55:58;;;;;;;0.20;0.20;;;4.10;99.90;;;;;;5018518;28;20951;-81
2023/01/29 06:58:23;;;;;;;0.30;0.30;;;4.10;99.90;;;;;;5021946;28;20986;-81
2023/01/29 07:00:49;;;;;;;0.30;0.30;;;4.10;99.90;;;;;;5024054;28;20183;-80
2023/01/29 07:03:14;;;;;;;0.30;0.30;;;4.10;99.90;;;;;;5025749;28;20179;-81
2023/01/29 07:05:40;;;;;;;0.30;0.30;;;4.10;99.90;;;;;;5027519;28;20188;-81
2023/01/29 07:08:08;;;;;;;0.30;0.30;;;4.10;99.90;;;;;;5027057;28;20259;-81
2023/01/29 07:10:34;;;;;;;0.30;0.30;;;4.10;99.90;;;;;;5022227;28;20670;-81
2023/01/29 07:12:59;;;;;;;0.30;0.30;;;4.10;99.90;;;;;;5027324;28;20446;-81
2023/01/29 07:15:26;;;;;;;0.30;0.30;;;4.10;99.90;;;;;;5027442;28;20190;-81
2023/01/29 07:18:03;;;;;;;0.30;0.30;;;4.10;99.90;;;;;;5023402;28;20195;-82
2023/01/29 07:20:30;;;;;;;0.30;0.30;;;4.10;99.90;;;;;;5024064;28;20438;-81
2023/01/29 07:22:56;;;;;;;0.20;0.20;;;4.10;99.90;;;;;;5027998;28;20453;-83
2023/01/29 07:25:23;;;;;;;0.30;0.30;;;4.10;99.90;;;;;;5025968;28;20497;-83
2023/01/29 07:27:48;;;;;;;0.30;0.30;;;4.10;99.90;;;;;;5025195;28;21168;-84
2023/01/29 07:30:15;;;;;;;0.30;0.30;;;4.10;99.90;;;;;;5027876;28;20453;-85
2023/01/29 07:32:41;;;;;;;0.27;0.27;;;4.10;99.90;;;;;;5033432;28;20229;-84
2023/01/29 07:35:06;;;;;;;0.30;0.30;;;4.10;99.90;;;;;;5030370;28;20442;-81
2023/01/29 07:37:32;;;;;;;0.30;0.30;;;4.00;99.90;;;;;;5031642;28;20194;-82
2023/01/29 07:39:58;;;;;;;0.33;0.33;;;4.00;99.90;;;;;;5031621;28;20511;-82
2023/01/29 07:42:23;;;;;;;0.30;0.30;;;4.00;99.90;;;;;;5021300;28;20226;-81
2023/01/29 07:44:49;;;;;;;0.30;0.30;;;4.00;99.90;;;;;;5016749;28;20261;-81
2023/01/29 07:47:14;;;;;;;0.30;0.30;;;3.90;99.90;;;;;;5027385;28;20366;-81
2023/01/29 07:49:40;;;;;;;0.30;0.30;;;4.00;99.90;;;;;;5031549;28;20183;-82
2023/01/29 07:52:06;;;;;;;0.30;0.30;;;4.00;99.90;;;;;;5027536;28;20186;-82
2023/01/29 07:54:31;;;;;;;0.30;0.30;;;4.00;99.90;;;;;;5023546;28;20446;-80
2023/01/29 07:56:57;;;;;;;0.30;0.30;;;4.00;99.90;;;;;;5019287;28;20253;-81
2023/01/29 07:59:22;;;;;;;0.30;0.30;;;4.00;99.90;;;;;;5025041;28;20283;-82
2023/01/29 08:01:48;;;;;;;0.20;0.20;;;4.00;99.90;;;;;;5026186;28;20184;-82
2023/01/29 08:04:13;;;;;;;0.30;0.30;;;3.90;99.90;;;;;;5032595;28;20721;-82
2023/01/29 08:06:41;;;;;;;0.23;0.23;;;4.00;99.90;;;;;;5028180;28;20535;-81
2023/01/29 08:09:07;;;;;;;0.20;0.20;;;3.90;99.90;;;;;;5020570;28;20267;-81
2023/01/29 08:11:33;;;;;;;0.30;0.30;;;4.00;99.90;;;;;;5028870;28;20532;-81
2023/01/29 08:13:58;;;;;;;0.30;0.30;;;3.90;99.90;;;;;;5021090;28;22301;-80
2023/01/29 08:16:24;;;;;;;0.30;0.30;;;4.00;99.90;;;;;;5027622;28;20238;-81
2023/01/29 08:18:49;;;;;;;0.30;0.30;;;4.00;99.90;;;;;;5030104;28;20200;-82
2023/01/29 08:21:15;;;;;;;0.20;0.20;;;4.00;99.90;;;;;;5027044;28;20180;-81
2023/01/29 08:23:40;;;;;;;0.30;0.30;;;4.00;99.90;;;;;;5041926;28;20821;-81
2023/01/29 08:26:06;;;;;;;0.30;0.30;;;3.90;99.90;;;;;;5028995;28;20211;-83
2023/01/29 08:28:32;;;;;;;0.30;0.30;;;4.00;99.90;;;;;;5028931;28;20263;-83
2023/01/29 08:30:57;;;;;;;0.30;0.30;;;4.00;99.90;;;;;;5027165;28;20180;-81
2023/01/29 08:33:26;;;;;;;0.40;0.40;;;4.00;99.90;;;;;;5041955;28;20184;-82
2023/01/29 08:35:52;;;;;;;0.20;0.20;;;4.00;99.90;;;;;;5038001;28;20188;-81
2023/01/29 08:38:17;;;;;;;0.30;0.30;;;3.90;99.90;;;;;;5026946;28;20449;-82
2023/01/29 08:40:43;;;;;;;0.30;0.30;;;4.00;99.90;;;;;;5031349;28;20689;-81
2023/01/29 08:43:11;;;;;;;0.30;0.30;;;4.00;99.90;;;;;;5030203;28;20214;-81
2023/01/29 08:45:39;;;;;;;0.20;0.20;;;4.00;99.90;;;;;;5027291;28;20258;-82
2023/01/29 08:48:05;;;;;;;0.20;0.20;;;4.00;99.90;;;;;;5029790;28;20466;-81
2023/01/29 08:50:33;;;;;;;0.30;0.30;;;4.00;99.90;;;;;;5027350;28;20489;-82
2023/01/29 08:53:02;;;;;;;0.23;0.23;;;4.10;99.90;;;;;;5028994;28;20489;-81
2023/01/29 08:55:28;;;;;;;0.23;0.23;;;4.10;99.90;;;;;;5028341;28;20881;-81
2023/01/29 08:57:53;;;;;;;0.23;0.23;;;4.00;99.90;;;;;;5021813;28;20534;-82
2023/01/29 09:00:19;;;;;;;0.30;0.30;;;4.00;99.90;;;;;;5022006;28;21061;-83
2023/01/29 09:02:45;;;;;;;0.30;0.30;;;4.10;99.90;;;;;;5019821;28;20602;-83
2023/01/29 09:05:10;;;;;;;0.40;0.40;;;4.00;99.90;;;;;;5028185;28;20492;-84
2023/01/29 09:07:36;;;;;;;0.30;0.30;;;4.00;99.90;;;;;;5027786;28;20270;-85
2023/01/29 09:10:02;;;;;;;0.30;0.30;;;4.00;99.90;;;;;;5027275;28;20191;-83
2023/01/29 09:12:28;;;;;;;0.30;0.30;;;4.00;99.90;;;;;;5025495;28;20195;-84
2023/01/29 09:14:53;;;;;;;0.20;0.20;;;4.00;99.90;;;;;;5017729;28;20582;-86
2023/01/29 09:17:19;;;;;;;0.30;0.30;;;4.00;99.90;;;;;;5024886;28;20206;-84
2023/01/29 09:19:44;;;;;;;0.20;0.20;;;4.00;99.90;;;;;;5030134;28;20719;-85
2023/01/29 09:22:10;;;;;;;0.30;0.30;;;3.90;99.90;;;;;;5026288;28;20245;-84
2023/01/29 09:24:35;;;;;;;0.27;0.27;;;3.90;99.90;;;;;;5024291;28;20218;-85
2023/01/29 09:27:01;;;;;;;0.30;0.30;;;3.90;99.90;;;;;;5026096;28;20191;-85
2023/01/29 09:29:26;;;;;;;0.30;0.30;;;3.90;99.90;;;;;;5024213;28;20191;-84
2023/01/29 09:31:52;;;;;;;0.30;0.30;;;3.90;99.90;;;;;;5015811;28;20686;-84
2023/01/29 09:34:17;;;;;;;0.30;0.30;;;3.90;99.90;;;;;;5043112;28;20191;-83
2023/01/29 09:36:43;;;;;;;0.33;0.33;;;3.90;99.90;;;;;;5017964;28;20729;-82
2023/01/29 09:39:09;;;;;;;0.30;0.30;;;4.00;99.90;;;;;;5027040;28;20196;-81
2023/01/29 09:41:50;;;;;;;0.30;0.30;;;4.00;99.90;;;;;;5025970;28;20187;-81
2023/01/29 09:44:38;;;;;;;0.30;0.30;;;3.90;99.90;;;;;;5027348;28;20223;-83
2023/01/29 09:47:10;;;;;;;0.30;0.30;;;4.00;99.90;;;;;;5015941;28;20485;-81
2023/01/29 09:49:41;;;;;;;0.30;0.30;;;4.00;99.90;;;;;;5029165;28;20516;-81
2023/01/29 09:52:12;;;;;;;0.30;0.30;;;4.00;99.90;;;;;;5027224;28;20877;-82
2023/01/29 09:54:38;;;;;;;0.30;0.30;;;4.00;99.90;;;;;;5029016;28;20496;-81
2023/01/29 09:57:09;;;;;;;0.30;0.30;;;4.00;99.90;;;;;;5024345;28;20430;-82
2023/01/29 09:59:34;;;;;;;0.33;0.33;;;4.00;99.90;;;;;;5042165;28;20196;-82
2023/01/29 10:02:13;;;;;;;0.30;0.30;;;4.00;99.90;;;;;;5014701;28;20454;-81
2023/01/29 10:04:54;;;;;;;0.23;0.23;;;4.00;99.90;;;;;;5024347;28;20226;-81
2023/01/29 10:08:05;;;;;;;0.20;0.20;;;4.00;99.90;;;;;;5029628;28;20438;-83
2023/01/29 10:10:58;;;;;;;0.30;0.30;;;4.00;99.90;;;;;;5009745;28;20450;-82
2023/01/29 10:13:58;;;;;;;0.30;0.30;;;4.00;99.90;;;;;;5026545;28;20469;-83
2023/01/29 10:16:59;;;;;;;0.30;0.30;;;4.00;99.90;;;;;;5036225;28;20437;-80
2023/01/29 10:19:53;;;;;;;0.30;0.30;;;4.10;99.90;;;;;;5015586;28;20466;-80
2023/01/29 10:22:53;;;;;;;0.30;0.30;;;4.10;99.90;;;;;;5024676;28;20933;-80
2023/01/29 10:25:21;;;;;;;0.37;0.37;;;4.00;99.90;;;;;;5016874;28;20485;-80
2023/01/29 10:27:57;;;;;;;0.30;0.30;;;4.10;99.90;;;;;;5023521;28;21047;-82
2023/01/29 10:30:39;;;;;;;0.30;0.30;;;4.00;99.90;;;;;;5023939;28;21217;-83
2023/01/29 10:33:16;;;;;;;0.30;0.30;;;4.00;99.90;;;;;;5021423;28;20793;-83
2023/01/29 10:35:48;;;;;;;0.30;0.30;;;4.10;99.90;;;;;;5023522;28;20478;-83
2023/01/29 10:38:20;;;;;;;0.20;0.20;;;4.00;99.90;;;;;;5019958;28;20850;-83
2023/01/29 10:41:08;;;;;;;0.30;0.30;;;4.10;99.90;;;;;;5018968;28;20442;-86
2023/01/29 10:43:48;;;;;;;0.30;0.30;;;4.10;99.90;;;;;;5024228;28;20518;-87
2023/01/29 10:46:25;;;;;;;0.30;0.30;;;4.10;99.90;;;;;;5022694;28;20443;-85
2023/01/29 10:49:28;;;;;;;0.30;0.30;;;4.10;99.90;;;;;;5023001;28;20452;-82
2023/01/29 10:52:06;;;;;;;0.30;0.30;;;4.10;99.90;;;;;;5018994;28;20478;-85
2023/01/29 10:54:51;;;;;;;0.23;0.23;;;4.10;99.90;;;;;;5027704;28;20449;-84
2023/01/29 10:57:41;;;;;;;0.30;0.30;;;4.10;99.90;;;;;;5026622;28;20449;-83
2023/01/29 11:00:20;;;;;;;0.20;0.20;;;4.10;99.90;;;;;;5029655;28;20488;-83
2023/01/29 11:02:49;;;;;;;0.30;0.30;;;4.10;99.90;;;;;;5029989;28;20536;-82
2023/01/29 11:05:28;;;;;;;0.30;0.30;;;4.10;99.90;;;;;;5027959;28;20495;-83
2023/01/29 11:08:19;;;;;;;0.30;0.30;;;4.10;99.90;;;;;;5023799;28;20445;-83
2023/01/29 11:11:08;;;;;;;0.40;0.40;;;4.10;99.90;;;;;;5017829;28;20453;-84
2023/01/29 11:13:44;;;;;;;0.30;0.30;;;4.20;99.90;;;;;;5026958;28;20474;-84
2023/01/29 11:16:09;;;;;;;0.30;0.30;;;4.20;99.90;;;;;;5021169;28;20450;-84
2023/01/29 11:18:58;;;;;;;0.30;0.30;;;4.20;99.90;;;;;;5023005;28;20957;-84
2023/01/29 11:21:25;;;;;;;0.30;0.30;;;4.20;99.90;;;;;;5026748;28;20215;-84
2023/01/29 11:24:15;;;;;;;0.40;0.40;;;4.30;99.90;;;;;;5020241;28;21007;-84
2023/01/29 11:26:43;;;;;;;0.30;0.30;;;4.40;99.90;;;;;;5023042;28;20441;-86
2023/01/29 11:29:39;;;;;;;0.30;0.30;;;4.30;99.90;;;;;;5030675;28;20430;-87
2023/01/29 11:32:13;;;;;;;0.30;0.30;;;4.30;99.90;;;;;;5028686;28;20445;-85
2023/01/29 11:34:58;;;;;;;0.30;0.30;;;4.50;99.90;;;;;;5021148;28;20481;-84
2023/01/29 11:37:38;;;;;;;0.30;0.30;;;4.50;99.90;;;;;;5025224;28;20473;-84
2023/01/29 11:40:37;;;;;;;0.30;0.30;;;4.50;99.90;;;;;;5022502;28;20437;-85
2023/01/29 11:43:11;;;;;;;0.30;0.30;;;4.60;99.90;;;;;;5009064;28;20451;-83
2023/01/29 11:45:39;;;;;;;0.30;0.30;;;4.60;99.90;;;;;;5020011;28;20588;-82
2023/01/29 11:48:05;;;;;;;0.30;0.30;;;4.50;99.90;;;;;;5018451;28;20435;-83
2023/01/29 11:50:32;;;;;;;0.30;0.30;;;4.50;99.90;;;;;;5027570;28;20469;-83
2023/01/29 11:52:59;;;;;;;0.20;0.20;;;4.50;99.90;;;;;;5026407;28;20435;-83
2023/01/29 11:55:27;;;;;;;0.30;0.30;;;4.50;99.90;;;;;;5017505;28;20440;-83
2023/01/29 11:58:10;;;;;;;0.30;0.30;;;4.50;99.90;;;;;;5029661;28;20442;-83
2023/01/29 12:00:40;;;;;;;0.30;0.30;;;4.50;99.90;;;;;;5023528;28;20504;-82
2023/01/29 12:03:38;;;;;;;0.30;0.30;;;4.50;99.90;;;;;;5026936;28;20569;-84
2023/01/29 12:06:20;;;;;;;0.20;0.20;;;4.50;99.90;;;;;;5028541;28;20455;-83
2023/01/29 12:08:54;;;;;;;0.30;0.30;;;4.50;99.90;;;;;;5027526;28;20464;-83
2023/01/29 12:11:24;;;;;;;0.20;0.20;;;4.50;99.90;;;;;;5028891;28;20446;-84
2023/01/29 12:13:55;;;;;;;0.40;0.40;;;4.60;99.90;;;;;;5028521;28;20910;-83
2023/01/29 12:16:31;;;;;;;0.30;0.30;;;4.60;99.90;;;;;;5024455;28;20442;-84
2023/01/29 12:19:23;;;;;;;0.30;0.30;;;4.60;99.90;;;;;;5029305;28;20812;-83
2023/01/29 12:22:05;;;;;;;0.30;0.30;;;4.80;99.90;;;;;;5036013;28;20480;-81
2023/01/29 12:24:41;;;;;;;0.30;0.30;;;4.80;99.90;;;;;;5025637;28;20996;-81
2023/01/29 12:27:24;;;;;;;0.30;0.30;;;4.80;99.90;;;;;;5030788;28;20448;-81
2023/01/29 12:30:26;;;;;;;0.30;0.30;;;4.80;99.90;;;;;;5027733;28;20469;-83
2023/01/29 12:33:37;;;;;;;0.30;0.30;;;4.80;99.90;;;;;;5011945;28;20691;-83
2023/01/29 12:36:24;;;;;;;0.20;0.20;;;4.80;99.90;;;;;;5028940;28;20442;-83
2023/01/29 12:38:50;;;;;;;0.30;0.30;;;4.80;99.90;;;;;;5026843;28;20456;-83
2023/01/29 12:41:45;;;;;;;0.23;0.23;;;4.70;99.90;;;;;;5026459;28;20435;-83
2023/01/29 12:44:32;;;;;;;0.30;0.30;;;4.70;99.90;;;;;;5024962;28;20208;-83
2023/01/29 12:47:02;;;;;;;0.30;0.30;;;4.70;99.90;;;;;;5023052;28;20457;-83
2023/01/29 12:49:31;;;;;;;0.30;0.30;;;4.70;99.90;;;;;;5025795;28;20961;-84
2023/01/29 12:51:57;;;;;;;0.30;0.30;;;4.60;99.90;;;;;;5024597;28;20525;-83
2023/01/29 12:54:50;;;;;;;0.30;0.30;;;4.60;99.90;;;;;;5025875;28;20537;-83
2023/01/29 12:57:27;;;;;;;0.30;0.30;;;4.60;99.90;;;;;;5023445;28;20941;-84
2023/01/29 13:00:14;;;;;;;0.20;0.20;;;4.60;99.90;;;;;;5027363;28;20457;-83
2023/01/29 13:02:54;;;;;;;0.30;0.30;;;4.60;99.90;;;;;;5019245;28;20443;-83
2023/01/29 13:05:38;;;;;;;0.30;0.30;;;4.60;99.90;;;;;;5016391;28;20497;-83
2023/01/29 13:08:19;;;;;;;0.20;0.20;;;4.50;99.90;;;;;;5025570;28;21188;-84
2023/01/29 13:10:49;;;;;;;0.27;0.27;;;4.50;99.90;;;;;;5023915;28;20446;-83
2023/01/29 13:13:30;;;;;;;0.20;0.20;;;4.50;99.90;;;;;;5024430;28;20984;-83
2023/01/29 13:15:57;;;;;;;0.30;0.30;;;4.50;99.90;;;;;;5023488;28;20861;-85
2023/01/29 13:18:39;;;;;;;0.30;0.30;;;4.50;99.90;;;;;;5024279;28;20441;-81
2023/01/29 13:21:05;;;;;;;0.30;0.30;;;4.50;99.90;;;;;;5029547;28;21023;-81
2023/01/29 13:23:36;;;;;;;0.30;0.30;;;4.50;99.90;;;;;;5022017;28;20431;-79
2023/01/29 13:26:04;;;;;;;0.30;0.30;;;4.50;99.90;;;;;;5019045;28;20509;-77
2023/01/29 13:28:30;;;;;;;0.30;0.30;;;4.50;99.90;;;;;;5027978;28;20451;-78
2023/01/29 13:31:22;;;;;;;0.30;0.30;;;4.50;99.90;;;;;;5024583;28;20442;-78
2023/01/29 13:33:55;;;;;;;0.30;0.30;;;4.40;99.90;;;;;;5014052;28;20446;-80
2023/01/29 13:36:27;;;;;;;0.30;0.30;;;4.40;99.90;;;;;;5018154;28;20474;-79
2023/01/29 13:39:02;;;;;;;0.30;0.30;;;4.40;99.90;;;;;;5010597;28;20935;-81
2023/01/29 13:41:38;;;;;;;0.23;0.23;;;4.40;99.90;;;;;;5015535;28;20536;-81
2023/01/29 13:44:07;;;;;;;0.23;0.23;;;4.40;99.90;;;;;;5025256;28;20625;-79
2023/01/29 13:46:33;;;;;;;0.30;0.30;;;4.40;99.90;;;;;;5020281;28;20474;-79
2023/01/29 13:49:03;;;;;;;0.30;0.30;;;4.30;99.90;;;;;;5023154;28;21049;-78
2023/01/29 13:51:35;;;;;;;0.40;0.40;;;4.30;99.90;;;;;;5020493;28;20275;-79